Bend, OR

6:56 PM PDT on August 29, 2014 (GMT -0700)
Near The River | Change Station
CLOSE
Current Station
Personal Weather Station
Location: Bend, OR
Elevation: 3533 ft
Nearby Weather Stations

Elev 3533 ft 44.09 °N, 121.31 °W | Updated 1 minute ago

Clear
Clear
70.2 °F
Feels Like 71 °F
N
8.7
Wind Variable Wind from West
Gusts 8.7 mph

Today
High -- | Low -- °F
--% Chance of Precip.
Yesterday
High -- | Low -- °F
Precip. -- in
6:24 AM 7:46 PM
Waxing Crescent, 18% visible
Pressure 29.98 in
Visibility 10.0 miles
Clouds Clear
Heat Index 71 °F
Dew Point 32 °F
Humidity 9%
Rainfall 0.00 in
Snow Depth Not available.
UV 0 out of 12
Pollen 3.30 out of 12
Air Quality Not available.
Flu Activity Not available.
METAR KBDN 300155Z AUTO 32012G19KT 10SM CLR 22/03 A2998 RMK AO2

More Conditions Fewer Conditions

Pressure 29.98 in
Visibility 10.0 miles
Clouds Clear
Heat Index 71 °F
Dew Point 32 °F
Humidity 9%
Rainfall 0.00 in
Snow Depth Not available.
UV 0 out of 12
Pollen 3.30 out of 12
Air Quality Not available.
Flu Activity Not available.
METAR KBDN 300155Z AUTO 32012G19KT 10SM CLR 22/03 A2998 RMK AO2

More Conditions Fewer Conditions

10-Day Weather Forecast

Almanac

Astronomy

Aug. 29, 2014 Rise Set
Actual Time 6:24 AM PDT 7:46 PM PDT
Civil Twilight 5:54 AM PDT 8:16 PM PDT
Nautical Twilight 5:18 AM PDT 8:52 PM PDT
Astronomical Twilight 4:40 AM PDT 9:30 PM PDT
Moon 10:29 AM PDT (8/29) 9:36 PM PDT (8/29)
Length of Visible Light 14h 21m
Length of Day
13h 21m
Tomorrow will be 2m 55s shorter.
Waxing Crescent, 18% of the Moon is Illuminated
Today
Waxing Crescent
Sep 2
First Quarter
Sep 8
Full
Sep 15
Last Quarter
Sep 24
New

Today's Extremes

State Highs State Lows

Community

WunderPhotos

Upload Photos

1,748,403 photos uploaded!

Nearby

Snow Depth

Station Depth Elevation
Hogg Pass 0 in 4760 ft
Irish Taylor 0 in 5500 ft
Santiam Junction 0 in 3750 ft
Roaring River 0 in 4900 ft
Salt Creek Falls 0 in 4000 ft

Earthquake Activity

City Distance Mag. Time & Date
No recent earthquake activity has been reported nearby.
Minimum magnitude displayed is 2.5.

Coastal Water Temperatures

Place Temperature
No Stations Reporting

Nearby Weather Stations